createdAt,value
2019-02-24T00:00:58.311Z,23.43
2019-02-24T00:03:43.309Z,24.70
2019-02-24T00:06:27.985Z,24.63
2019-02-24T00:09:12.795Z,24.00
2019-02-24T00:11:58.443Z,23.73
2019-02-24T00:14:44.972Z,27.43
2019-02-24T00:17:30.213Z,22.80
2019-02-24T00:20:15.620Z,25.43
2019-02-24T00:23:01.154Z,23.93
2019-02-24T00:25:46.577Z,23.50
2019-02-24T00:28:31.780Z,24.07
2019-02-24T00:31:18.223Z,22.77
2019-02-24T00:34:03.726Z,22.43
2019-02-24T00:36:48.757Z,23.53
2019-02-24T00:39:33.996Z,22.87
2019-02-24T00:42:19.886Z,22.50
2019-02-24T00:45:06.772Z,23.67
2019-02-24T00:47:51.725Z,24.50
2019-02-24T00:50:36.913Z,24.10
2019-02-24T00:53:21.990Z,23.90
2019-02-24T00:56:07.567Z,22.13
2019-02-24T00:58:52.831Z,22.20
2019-02-24T01:01:38.394Z,22.70
2019-02-24T01:04:23.384Z,24.37
2019-02-24T01:07:08.568Z,23.20
2019-02-24T01:09:54.690Z,22.70
2019-02-24T01:12:40.325Z,21.30
2019-02-24T01:15:26.119Z,21.97
2019-02-24T01:18:11.358Z,21.87
2019-02-24T01:20:56.377Z,22.70
2019-02-24T01:23:41.795Z,20.23
2019-02-24T01:26:26.922Z,21.83
2019-02-24T01:29:12.385Z,21.83
2019-02-24T01:31:57.433Z,20.60
2019-02-24T01:34:42.805Z,21.83
2019-02-24T01:37:27.440Z,21.53
2019-02-24T01:40:12.357Z,22.77
2019-02-24T01:42:57.421Z,22.90
2019-02-24T01:45:42.144Z,21.17
2019-02-24T01:48:26.755Z,21.50
2019-02-24T01:51:11.658Z,22.77
2019-02-24T01:53:56.769Z,21.10
2019-02-24T01:56:41.479Z,21.03
2019-02-24T01:59:27.044Z,23.40
2019-02-24T02:02:11.960Z,22.07
2019-02-24T02:04:58.526Z,21.23
2019-02-24T02:07:43.484Z,21.10
2019-02-24T02:10:28.166Z,26.27
2019-02-24T02:13:13.599Z,24.43
2019-02-24T02:15:58.599Z,22.53
2019-02-24T02:18:43.632Z,22.40
2019-02-24T02:21:28.878Z,22.13
2019-02-24T02:24:14.172Z,22.00
2019-02-24T02:26:59.189Z,21.67
2019-02-24T02:29:44.203Z,23.03
2019-02-24T02:32:30.748Z,22.67
2019-02-24T02:35:15.795Z,22.90
2019-02-24T02:38:00.561Z,22.97
2019-02-24T02:40:46.011Z,23.00
2019-02-24T02:43:31.130Z,24.03
2019-02-24T02:46:16.357Z,21.93
2019-02-24T02:49:01.175Z,22.00
2019-02-24T02:51:46.421Z,22.97
2019-02-24T02:54:31.651Z,21.67
2019-02-24T02:57:16.410Z,22.73
2019-02-24T03:00:05.215Z,24.07
2019-02-24T03:02:49.965Z,24.20
2019-02-24T03:05:36.598Z,20.90
2019-02-24T03:08:24.825Z,21.10
2019-02-24T03:11:09.733Z,23.07
2019-02-24T03:13:54.723Z,24.17
2019-02-24T03:16:41.733Z,21.00
2019-02-24T03:19:26.876Z,22.90
2019-02-24T03:22:11.975Z,21.27
2019-02-24T03:24:56.958Z,20.97
2019-02-24T03:27:43.536Z,21.70
2019-02-24T03:30:30.349Z,20.33
2019-02-24T03:33:15.403Z,20.13
2019-02-24T03:36:00.904Z,20.50
2019-02-24T03:38:46.208Z,19.30
2019-02-24T03:41:31.935Z,20.57
2019-02-24T03:44:16.974Z,20.53
2019-02-24T03:47:02.542Z,19.87
2019-02-24T03:49:47.579Z,21.20
2019-02-24T03:52:32.816Z,21.27
2019-02-24T03:55:18.514Z,20.20
2019-02-24T03:58:03.609Z,19.40
2019-02-24T04:00:49.035Z,17.93
2019-02-24T04:03:34.256Z,18.87
2019-02-24T04:06:19.413Z,19.07
2019-02-24T04:09:05.610Z,19.40
2019-02-24T04:11:52.814Z,20.00
2019-02-24T04:14:37.559Z,20.17
2019-02-24T04:17:23.197Z,23.80
2019-02-24T04:20:08.566Z,21.90
2019-02-24T04:22:53.547Z,20.80
2019-02-24T04:25:38.741Z,21.97
2019-02-24T04:28:23.606Z,20.93
2019-02-24T04:31:08.350Z,20.10
2019-02-24T04:33:53.476Z,19.97
2019-02-24T04:36:38.532Z,19.77
2019-02-24T04:39:23.590Z,19.07
2019-02-24T04:42:08.878Z,18.77
2019-02-24T04:44:53.675Z,19.00
2019-02-24T04:47:38.922Z,18.73
2019-02-24T04:50:23.652Z,17.90
2019-02-24T04:53:08.460Z,19.70
2019-02-24T04:55:54.097Z,21.23
2019-02-24T04:58:39.188Z,21.20
2019-02-24T05:01:24.815Z,18.33
2019-02-24T05:04:10.121Z,19.67
2019-02-24T05:06:55.797Z,19.43
2019-02-24T05:09:40.739Z,19.50
2019-02-24T05:12:26.154Z,24.70
2019-02-24T05:15:11.239Z,24.17
2019-02-24T05:17:57.105Z,23.13
2019-02-24T05:20:42.560Z,20.37
2019-02-24T05:23:27.818Z,19.20
2019-02-24T05:26:13.686Z,18.83
2019-02-24T05:28:59.474Z,21.30
2019-02-24T05:31:44.850Z,17.50
2019-02-24T05:34:30.069Z,19.57
2019-02-24T05:37:17.129Z,18.83
2019-02-24T05:40:03.095Z,19.23
2019-02-24T05:42:47.846Z,18.00
2019-02-24T05:45:32.552Z,17.63
2019-02-24T05:48:17.280Z,19.10
2019-02-24T05:51:02.038Z,19.20
2019-02-24T05:53:47.421Z,19.30
2019-02-24T05:56:33.083Z,18.17
2019-02-24T05:59:18.055Z,21.40
2019-02-24T06:02:02.958Z,18.30
2019-02-24T06:04:48.446Z,20.40
2019-02-24T06:07:33.338Z,18.40
2019-02-24T06:10:19.140Z,18.40
2019-02-24T06:13:04.495Z,20.13
2019-02-24T06:15:49.987Z,19.77
2019-02-24T06:18:35.046Z,19.03
2019-02-24T06:21:20.725Z,19.87
2019-02-24T06:24:05.900Z,19.73
2019-02-24T06:26:52.036Z,19.50
2019-02-24T06:29:37.121Z,19.47
2019-02-24T06:32:22.279Z,19.97
2019-02-24T06:35:07.364Z,20.07
2019-02-24T06:37:53.229Z,20.27
2019-02-24T06:40:38.662Z,18.70
2019-02-24T06:43:23.644Z,19.00
2019-02-24T06:46:11.193Z,19.63
2019-02-24T06:48:56.184Z,17.07
2019-02-24T06:51:41.608Z,18.57
2019-02-24T06:54:26.942Z,17.43
2019-02-24T06:57:12.259Z,17.93
2019-02-24T06:59:57.699Z,18.47
2019-02-24T07:02:42.869Z,18.40
2019-02-24T07:05:28.043Z,17.70
2019-02-24T07:08:13.098Z,18.50
2019-02-24T07:10:58.147Z,16.73
2019-02-24T07:13:43.242Z,18.60
2019-02-24T07:16:28.575Z,19.73
2019-02-24T07:19:13.967Z,19.30
2019-02-24T07:21:59.052Z,18.77
2019-02-24T07:24:44.088Z,18.50
2019-02-24T07:27:29.223Z,17.33
2019-02-24T07:30:22.819Z,16.40
2019-02-24T07:33:01.577Z,14.20
2019-02-24T07:35:47.048Z,15.70
2019-02-24T07:38:32.559Z,16.13
2019-02-24T07:41:17.821Z,16.60
2019-02-24T07:44:02.811Z,16.67
2019-02-24T07:46:48.187Z,17.17
2019-02-24T07:49:33.592Z,16.80
2019-02-24T07:52:18.698Z,18.50
2019-02-24T07:55:05.408Z,16.43
2019-02-24T07:57:50.301Z,17.77
2019-02-24T08:00:36.080Z,16.93
2019-02-24T08:03:21.145Z,16.10
2019-02-24T08:06:06.099Z,17.23
2019-02-24T08:08:51.235Z,17.03
2019-02-24T08:11:36.007Z,18.03
2019-02-24T08:14:21.232Z,18.93
2019-02-24T08:17:06.530Z,19.40
2019-02-24T08:19:52.146Z,17.60
2019-02-24T08:22:37.364Z,18.43
2019-02-24T08:25:22.782Z,17.57
2019-02-24T08:28:07.991Z,17.67
2019-02-24T08:30:53.213Z,20.53
2019-02-24T08:33:38.937Z,17.30
2019-02-24T08:36:24.041Z,20.37
2019-02-24T08:39:10.664Z,17.80
2019-02-24T08:41:55.786Z,18.53
2019-02-24T08:44:41.075Z,18.90
2019-02-24T08:47:26.306Z,17.50
2019-02-24T08:50:11.957Z,18.73
2019-02-24T08:52:57.377Z,18.53
2019-02-24T08:55:42.377Z,18.93
2019-02-24T08:58:27.332Z,18.63
2019-02-24T09:01:12.489Z,17.70
2019-02-24T09:03:57.682Z,19.50
2019-02-24T09:06:42.678Z,18.57
2019-02-24T09:09:27.546Z,20.30
2019-02-24T09:12:12.420Z,18.23
2019-02-24T09:14:58.790Z,18.33
2019-02-24T09:17:43.864Z,17.67
2019-02-24T09:20:29.129Z,17.60
2019-02-24T09:23:14.210Z,19.37
2019-02-24T09:25:59.513Z,19.77
2019-02-24T09:28:44.939Z,18.57
2019-02-24T09:31:30.180Z,20.33
2019-02-24T09:34:15.276Z,19.43
2019-02-24T09:37:00.555Z,17.77
2019-02-24T09:39:45.690Z,19.87
2019-02-24T09:42:30.553Z,18.53
2019-02-24T09:45:16.067Z,18.03
2019-02-24T09:48:01.301Z,18.00
2019-02-24T09:50:47.012Z,20.40
2019-02-24T09:53:32.400Z,17.47
2019-02-24T09:56:17.773Z,18.87
2019-02-24T09:59:02.905Z,16.50
2019-02-24T10:01:47.796Z,15.73
2019-02-24T10:04:32.879Z,17.77
2019-02-24T10:07:18.014Z,17.40
2019-02-24T10:10:06.975Z,17.20
2019-02-24T10:12:53.766Z,18.57
2019-02-24T10:15:39.323Z,16.67
2019-02-24T10:18:24.333Z,17.83
2019-02-24T10:21:09.762Z,16.07
2019-02-24T10:23:54.633Z,15.77
2019-02-24T10:26:39.860Z,17.13
2019-02-24T10:29:24.929Z,15.87
2019-02-24T10:32:10.579Z,17.87
2019-02-24T10:34:55.725Z,19.02
2019-02-24T10:37:40.793Z,18.43
2019-02-24T10:40:26.107Z,16.87
2019-02-24T10:43:11.150Z,17.13
2019-02-24T10:45:56.071Z,17.73
2019-02-24T10:48:41.466Z,20.10
2019-02-24T10:51:26.593Z,19.90
2019-02-24T10:54:12.085Z,18.33
2019-02-24T10:56:58.039Z,16.47
2019-02-24T10:59:44.045Z,16.60
2019-02-24T11:02:31.138Z,18.23
2019-02-24T11:05:16.044Z,18.33
2019-02-24T11:08:01.190Z,17.45
2019-02-24T11:10:46.271Z,20.40
2019-02-24T11:13:31.590Z,19.47
2019-02-24T11:16:18.746Z,17.77
2019-02-24T11:19:03.797Z,16.67
2019-02-24T11:21:48.827Z,19.87
2019-02-24T11:24:34.438Z,18.07
2019-02-24T11:27:19.250Z,17.17
2019-02-24T11:30:08.268Z,16.67
2019-02-24T11:32:53.739Z,16.37
2019-02-24T11:35:38.942Z,15.50
2019-02-24T11:38:24.377Z,16.60
2019-02-24T11:41:10.009Z,15.13
2019-02-24T11:43:55.054Z,16.50
2019-02-24T11:46:41.516Z,17.43
2019-02-24T11:49:26.795Z,16.67
2019-02-24T11:52:12.007Z,17.47
2019-02-24T11:54:57.285Z,16.20
2019-02-24T11:57:42.539Z,15.83
2019-02-24T12:00:28.099Z,15.03
2019-02-24T12:03:13.311Z,17.13
2019-02-24T12:06:00.169Z,16.70
2019-02-24T12:08:45.424Z,16.70
2019-02-24T12:11:30.670Z,18.47
2019-02-24T12:14:16.065Z,18.70
2019-02-24T12:17:01.636Z,20.13
2019-02-24T12:19:46.885Z,20.07
2019-02-24T12:22:31.960Z,18.77
2019-02-24T12:25:17.337Z,19.70
2019-02-24T12:28:02.768Z,18.57
2019-02-24T12:30:48.393Z,19.10
2019-02-24T12:33:34.604Z,19.13
2019-02-24T12:36:19.372Z,19.10
2019-02-24T12:39:04.529Z,21.13
2019-02-24T12:41:49.437Z,21.40
2019-02-24T12:44:36.352Z,20.03
2019-02-24T12:47:22.341Z,17.70
2019-02-24T12:50:15.335Z,17.37
2019-02-24T12:53:00.641Z,20.77
2019-02-24T12:55:46.304Z,22.93
2019-02-24T12:58:31.562Z,26.03
2019-02-24T13:01:16.609Z,24.73
2019-02-24T13:04:02.119Z,23.37
2019-02-24T13:06:47.197Z,20.00
2019-02-24T13:09:33.768Z,18.67
2019-02-24T13:12:19.488Z,17.70
2019-02-24T13:15:06.278Z,16.63
2019-02-24T13:17:52.466Z,16.47
2019-02-24T13:20:38.154Z,16.03
2019-02-24T13:23:23.165Z,19.03
2019-02-24T13:26:28.114Z,15.40
2019-02-24T13:29:15.095Z,15.07
2019-02-24T13:32:00.399Z,17.73
2019-02-24T13:34:45.452Z,15.23
2019-02-24T13:37:31.282Z,13.57
2019-02-24T13:40:18.384Z,14.93
2019-02-24T13:43:03.522Z,20.40
2019-02-24T13:45:48.576Z,11.50
2019-02-24T13:48:34.999Z,11.07
2019-02-24T13:51:20.120Z,9.00
2019-02-24T13:54:05.393Z,8.43
2019-02-24T13:56:51.097Z,8.73
2019-02-24T13:59:36.199Z,9.97
2019-02-24T14:02:23.990Z,8.67
2019-02-24T14:05:08.472Z,8.77
2019-02-24T14:07:54.788Z,8.20
2019-02-24T14:10:39.867Z,7.77
2019-02-24T14:13:24.663Z,6.47
2019-02-24T14:16:09.712Z,7.30
2019-02-24T14:18:55.068Z,7.63
2019-02-24T14:21:40.132Z,7.70
2019-02-24T14:24:26.731Z,8.33
2019-02-24T14:27:11.699Z,8.57
2019-02-24T14:29:56.969Z,7.33
2019-02-24T14:32:43.998Z,7.53
2019-02-24T14:35:31.158Z,7.93
2019-02-24T14:38:16.142Z,8.13
2019-02-24T14:41:01.559Z,8.60
2019-02-24T14:43:46.946Z,6.93
2019-02-24T14:46:32.041Z,7.83
2019-02-24T14:49:17.579Z,7.83
2019-02-24T14:52:02.898Z,8.33
2019-02-24T14:54:48.696Z,7.90
2019-02-24T14:57:33.882Z,8.03
2019-02-24T15:00:23.006Z,8.90
2019-02-24T15:03:07.869Z,10.47
2019-02-24T15:05:52.983Z,10.97
2019-02-24T15:08:37.919Z,9.60
2019-02-24T15:11:23.385Z,10.27
2019-02-24T15:14:10.891Z,9.30
2019-02-24T15:16:56.303Z,9.80
2019-02-24T15:19:41.647Z,9.53
2019-02-24T15:22:26.762Z,10.90
2019-02-24T15:25:14.859Z,11.53
2019-02-24T15:27:59.747Z,12.40
2019-02-24T15:30:48.098Z,11.97
2019-02-24T15:33:33.165Z,12.17
2019-02-24T15:36:18.701Z,13.00
2019-02-24T15:39:04.774Z,13.13
2019-02-24T15:41:49.658Z,12.50
2019-02-24T15:44:35.059Z,16.67
2019-02-24T15:47:20.033Z,18.90
2019-02-24T15:50:08.519Z,15.10
2019-02-24T15:52:53.588Z,19.20
2019-02-24T15:55:39.194Z,13.63
2019-02-24T15:58:24.518Z,16.43
2019-02-24T16:01:09.399Z,17.80
2019-02-24T16:03:54.674Z,16.23
2019-02-24T16:06:40.315Z,17.47
2019-02-24T16:09:25.305Z,28.53
2019-02-24T16:12:10.578Z,22.87
2019-02-24T16:14:55.735Z,22.60
2019-02-24T16:17:40.997Z,17.03
2019-02-24T16:20:28.681Z,17.60
2019-02-24T16:23:13.689Z,18.03
2019-02-24T16:25:59.828Z,17.90
2019-02-24T16:28:44.905Z,18.20
2019-02-24T16:31:32.830Z,20.60
2019-02-24T16:34:18.122Z,22.80
2019-02-24T16:37:03.375Z,22.67
2019-02-24T16:39:49.053Z,23.77
2019-02-24T16:42:34.363Z,23.97
2019-02-24T16:45:19.676Z,20.47
2019-02-24T16:48:05.205Z,24.97
2019-02-24T16:50:50.080Z,20.17
2019-02-24T16:53:35.544Z,19.57
2019-02-24T16:56:20.422Z,20.57
2019-02-24T16:59:07.792Z,23.70
2019-02-24T17:01:53.022Z,25.87
2019-02-24T17:04:38.735Z,29.43
2019-02-24T17:07:24.309Z,19.13
2019-02-24T17:10:16.018Z,16.33
2019-02-24T17:13:01.954Z,18.07
2019-02-24T17:15:47.222Z,17.43
2019-02-24T17:18:32.351Z,22.47
2019-02-24T17:21:18.616Z,19.80
2019-02-24T17:24:03.934Z,23.47
2019-02-24T17:26:49.127Z,28.87
2019-02-24T17:29:36.427Z,24.70
2019-02-24T17:32:21.908Z,35.13
2019-02-24T17:35:09.118Z,38.10
2019-02-24T17:37:54.520Z,33.40
2019-02-24T17:40:39.955Z,31.00
2019-02-24T17:43:25.086Z,31.83
2019-02-24T17:46:11.998Z,30.77
2019-02-24T17:48:57.425Z,33.67
2019-02-24T17:51:42.687Z,48.10
2019-02-24T17:54:27.643Z,53.17
2019-02-24T17:57:12.531Z,38.27
2019-02-24T17:59:57.707Z,33.93
2019-02-24T18:02:44.603Z,39.00
2019-02-24T18:05:29.879Z,44.33
2019-02-24T18:08:16.301Z,44.30
2019-02-24T18:11:01.346Z,53.93
2019-02-24T18:13:46.175Z,50.50
2019-02-24T18:16:32.493Z,65.50
2019-02-24T18:19:17.753Z,84.63
2019-02-24T18:22:03.127Z,36.87
2019-02-24T18:24:48.604Z,29.73
2019-02-24T18:27:33.600Z,34.00
2019-02-24T18:30:29.525Z,47.77
2019-02-24T18:33:15.238Z,55.07
2019-02-24T18:36:00.501Z,64.63
2019-02-24T18:38:46.080Z,56.87
2019-02-24T18:41:30.916Z,56.47
2019-02-24T18:44:16.843Z,71.77
2019-02-24T18:47:02.396Z,50.20
2019-02-24T18:49:47.508Z,33.43
2019-02-24T18:52:32.794Z,35.83
2019-02-24T18:55:17.866Z,45.37
2019-02-24T18:58:03.314Z,49.70
2019-02-24T19:00:48.742Z,47.27
2019-02-24T19:03:34.562Z,65.73
2019-02-24T19:06:19.589Z,80.10
2019-02-24T19:09:05.629Z,60.80
2019-02-24T19:11:50.727Z,48.23
2019-02-24T19:14:36.375Z,48.57
2019-02-24T19:17:21.715Z,46.53
2019-02-24T19:20:10.796Z,42.17
2019-02-24T19:22:56.559Z,44.27
2019-02-24T19:25:41.932Z,38.60
2019-02-24T19:28:27.190Z,35.87
2019-02-24T19:31:12.139Z,34.57
2019-02-24T19:34:31.786Z,35.67
2019-02-24T19:37:16.825Z,32.57
2019-02-24T19:40:02.902Z,33.43
2019-02-24T19:42:47.969Z,29.70
2019-02-24T19:45:33.211Z,30.43
2019-02-24T19:48:19.365Z,27.23
2019-02-24T19:51:06.682Z,28.03
2019-02-24T19:53:51.488Z,25.73
2019-02-24T19:56:36.602Z,26.40
2019-02-24T19:59:21.978Z,25.80
2019-02-24T20:02:07.153Z,25.53
2019-02-24T20:04:55.442Z,24.80
2019-02-24T20:07:41.887Z,23.53
2019-02-24T20:10:29.512Z,23.50
2019-02-24T20:13:14.901Z,22.30
2019-02-24T20:16:00.299Z,22.47
2019-02-24T20:18:45.390Z,23.47
2019-02-24T20:21:30.654Z,25.23
2019-02-24T20:24:15.825Z,21.17
2019-02-24T20:27:00.991Z,23.87
2019-02-24T20:29:46.130Z,20.33
2019-02-24T20:32:32.569Z,19.33
2019-02-24T20:35:17.963Z,21.23
2019-02-24T20:38:03.235Z,29.73
2019-02-24T20:40:49.256Z,35.33
2019-02-24T20:43:34.554Z,32.60
2019-02-24T20:46:19.920Z,26.23
2019-02-24T20:49:05.680Z,25.30
2019-02-24T20:51:51.128Z,23.50
2019-02-24T20:54:36.091Z,26.00
2019-02-24T20:57:21.425Z,25.13
2019-02-24T21:00:10.510Z,21.97
2019-02-24T21:02:55.767Z,23.00
2019-02-24T21:05:42.483Z,23.67
2019-02-24T21:08:28.391Z,24.93
2019-02-24T21:11:14.918Z,23.23
2019-02-24T21:13:59.833Z,22.63
2019-02-24T21:16:45.069Z,23.27
2019-02-24T21:19:30.685Z,20.83
2019-02-24T21:22:15.805Z,22.93
2019-02-24T21:25:01.168Z,23.10
2019-02-24T21:27:46.805Z,25.80
2019-02-24T21:30:31.981Z,21.30
2019-02-24T21:33:17.195Z,23.23
2019-02-24T21:36:02.679Z,22.60
2019-02-24T21:38:48.128Z,23.20
2019-02-24T21:41:33.364Z,22.47
2019-02-24T21:44:19.281Z,21.93
2019-02-24T21:47:04.528Z,21.60
2019-02-24T21:49:49.701Z,19.97
2019-02-24T21:52:34.975Z,21.20
2019-02-24T21:55:20.153Z,19.43
2019-02-24T21:58:05.942Z,22.70
2019-02-24T22:00:51.422Z,19.53
2019-02-24T22:03:38.463Z,19.73
2019-02-24T22:06:23.720Z,17.73
2019-02-24T22:09:10.116Z,29.40
2019-02-24T22:11:54.974Z,20.00
2019-02-24T22:14:40.859Z,18.43
2019-02-24T22:17:26.035Z,19.63
2019-02-24T22:20:16.460Z,19.07
2019-02-24T22:23:02.253Z,19.23
2019-02-24T22:25:47.626Z,19.43
2019-02-24T22:28:32.876Z,20.30
2019-02-24T22:31:19.619Z,26.00
2019-02-24T22:34:05.236Z,19.70
2019-02-24T22:36:50.959Z,19.17
2019-02-24T22:39:35.989Z,19.03
2019-02-24T22:42:21.580Z,18.10
2019-02-24T22:45:12.514Z,17.97
2019-02-24T22:47:57.370Z,17.80
2019-02-24T22:50:42.615Z,18.00
2019-02-24T22:53:28.027Z,16.77
2019-02-24T22:56:13.136Z,18.03
2019-02-24T22:58:58.657Z,17.77
2019-02-24T23:01:44.606Z,17.57
2019-02-24T23:04:30.548Z,17.43
2019-02-24T23:07:15.870Z,18.30
2019-02-24T23:10:00.824Z,18.40
2019-02-24T23:12:46.253Z,24.63
2019-02-24T23:15:33.527Z,19.83
2019-02-24T23:18:20.067Z,19.03
2019-02-24T23:21:05.148Z,19.13
2019-02-24T23:23:52.270Z,19.07
2019-02-24T23:26:37.057Z,19.67
2019-02-24T23:29:22.104Z,19.97
2019-02-24T23:32:07.270Z,21.97
2019-02-24T23:34:52.652Z,21.20
2019-02-24T23:37:38.540Z,18.33
2019-02-24T23:40:23.594Z,18.40
2019-02-24T23:43:10.585Z,19.90
2019-02-24T23:45:55.676Z,20.50
2019-02-24T23:48:40.415Z,44.37
2019-02-24T23:51:25.183Z,35.03
2019-02-24T23:54:10.582Z,21.17
2019-02-24T23:56:55.939Z,20.80
2019-02-24T23:59:40.913Z,20.70
